Time;durP1;ratioP1;P1;durP2;ratioP2;P2;SDS_P1;SDS_P2;PMS_P1;PMS_P2;Temp;Humidity;BMP_temperature;BMP_pressure;BME280_temperature;BME280_humidity;BME280_pressure;Samples;Min_cycle;Max_cycle;Signal;HPM_P1;HPM_P2
2023/06/30 00:00:16;;;;;;;3.97;3.58;;;18.60;86.10;;;;;;5031278;28;20544;-57
2023/06/30 00:02:42;;;;;;;4.07;3.50;;;18.50;86.10;;;;;;5031576;28;20052;-57
2023/06/30 00:05:09;;;;;;;4.38;3.78;;;18.50;86.10;;;;;;5031015;28;20049;-56
2023/06/30 00:07:36;;;;;;;4.70;3.70;;;18.50;86.10;;;;;;5031312;28;20432;-53
2023/06/30 00:10:03;;;;;;;4.00;3.60;;;18.50;86.20;;;;;;5031483;28;20026;-57
2023/06/30 00:12:29;;;;;;;4.88;3.67;;;18.50;86.30;;;;;;5031409;28;20036;-57
2023/06/30 00:14:54;;;;;;;5.22;3.40;;;18.50;86.40;;;;;;5031148;28;20055;-55
2023/06/30 00:17:20;;;;;;;4.13;3.55;;;18.50;86.50;;;;;;5031398;28;20036;-56
2023/06/30 00:19:45;;;;;;;5.25;3.70;;;18.60;86.50;;;;;;5031141;28;20044;-57
2023/06/30 00:22:11;;;;;;;4.60;3.72;;;18.60;86.20;;;;;;5031009;28;20048;-56
2023/06/30 00:24:37;;;;;;;4.00;3.38;;;18.60;86.10;;;;;;5031036;28;20037;-57
2023/06/30 00:27:02;;;;;;;3.83;3.42;;;18.60;86.00;;;;;;5030998;28;20014;-56
2023/06/30 00:29:28;;;;;;;4.20;3.80;;;18.60;86.10;;;;;;5031300;28;20026;-57
2023/06/30 00:31:54;;;;;;;4.60;3.53;;;18.60;86.10;;;;;;5031068;28;20026;-57
2023/06/30 00:34:20;;;;;;;4.65;4.00;;;18.50;86.10;;;;;;5030974;28;20535;-57
2023/06/30 00:36:45;;;;;;;5.03;4.07;;;18.50;86.30;;;;;;5030958;28;20109;-56
2023/06/30 00:39:11;;;;;;;4.57;3.85;;;18.50;86.30;;;;;;5030897;28;20112;-57
2023/06/30 00:41:37;;;;;;;4.15;3.72;;;18.50;86.20;;;;;;5030855;28;20555;-57
2023/06/30 00:44:02;;;;;;;4.32;3.72;;;18.50;86.30;;;;;;5031204;28;20072;-57
2023/06/30 00:46:28;;;;;;;3.85;3.35;;;18.40;86.30;;;;;;5031180;28;20021;-55
2023/06/30 00:48:54;;;;;;;5.68;4.00;;;18.40;86.30;;;;;;5030624;28;20377;-57
2023/06/30 00:51:20;;;;;;;4.43;3.95;;;18.30;86.30;;;;;;5030829;28;20493;-57
2023/06/30 00:53:46;;;;;;;4.10;3.70;;;18.30;86.50;;;;;;5031008;28;20108;-56
2023/06/30 00:56:12;;;;;;;4.47;3.85;;;18.30;86.50;;;;;;5030759;28;20516;-57
2023/06/30 00:58:38;;;;;;;4.20;3.60;;;18.30;86.50;;;;;;5030759;28;20018;-57
2023/06/30 01:01:40;;;;;;;3.67;3.28;;;18.30;86.50;;;;;;5033361;28;20107;-53
2023/06/30 01:04:11;;;;;;;7.32;3.85;;;18.30;86.30;;;;;;5033945;28;20121;-56
2023/06/30 01:06:52;;;;;;;;;;;18.30;86.40;;;;;;5034889;28;20069;-56
2023/06/30 01:09:23;;;;;;;3.50;3.08;;;18.30;86.10;;;;;;5034702;28;19912;-56
2023/06/30 01:11:50;;;;;;;3.57;3.27;;;18.30;86.40;;;;;;5034617;28;20424;-57
2023/06/30 01:14:16;;;;;;;6.97;3.88;;;18.30;86.40;;;;;;5034361;28;20388;-55
2023/06/30 01:16:43;;;;;;;4.22;3.58;;;18.30;86.30;;;;;;5034517;28;20446;-56
2023/06/30 01:19:25;;;;;;;3.97;3.55;;;18.30;86.10;;;;;;5034331;28;20033;-57
2023/06/30 01:21:55;;;;;;;4.20;3.47;;;18.30;85.90;;;;;;5034430;28;20025;-56
2023/06/30 01:24:27;;;;;;;4.72;3.72;;;18.40;85.90;;;;;;5034551;28;20037;-57
2023/06/30 01:26:52;;;;;;;;;;;18.40;85.80;;;;;;5034622;28;20021;-56
2023/06/30 01:29:18;;;;;;;3.90;3.30;;;18.30;85.40;;;;;;5034023;28;19962;-57
2023/06/30 01:31:45;;;;;;;3.90;3.50;;;18.30;85.60;;;;;;5034056;28;20021;-56
2023/06/30 01:34:11;;;;;;;4.80;3.63;;;18.30;85.50;;;;;;5034127;28;20036;-57
2023/06/30 01:36:36;;;;;;;4.85;3.45;;;18.30;85.40;;;;;;5034156;28;20029;-56
2023/06/30 01:39:02;;;;;;;4.40;3.85;;;18.20;85.50;;;;;;5034229;28;20030;-57
2023/06/30 01:41:28;;;;;;;4.45;3.90;;;18.20;85.60;;;;;;5033640;28;20134;-57
2023/06/30 01:43:55;;;;;;;5.03;3.70;;;18.20;85.50;;;;;;5033800;28;20388;-55
2023/06/30 01:46:20;;;;;;;4.53;3.70;;;18.20;85.60;;;;;;5033759;28;20022;-57
2023/06/30 01:48:46;;;;;;;4.07;3.67;;;18.10;85.50;;;;;;5033677;28;20041;-53
2023/06/30 01:51:13;;;;;;;5.10;3.70;;;18.10;85.60;;;;;;5033882;28;20025;-57
2023/06/30 01:53:39;;;;;;;4.20;3.28;;;18.10;85.70;;;;;;5033842;28;20056;-57
2023/06/30 01:56:05;;;;;;;4.47;3.60;;;18.10;85.60;;;;;;5033882;28;20037;-56
2023/06/30 01:58:31;;;;;;;4.97;3.40;;;18.10;85.50;;;;;;5033615;28;20031;-57
2023/06/30 02:00:57;;;;;;;4.10;3.70;;;18.10;85.40;;;;;;5033766;28;20125;-54
2023/06/30 02:03:23;;;;;;;4.68;3.55;;;18.10;85.40;;;;;;5033573;28;20025;-56
2023/06/30 02:05:49;;;;;;;4.82;4.00;;;18.20;85.50;;;;;;5033283;28;20072;-56
2023/06/30 02:08:14;;;;;;;4.35;3.75;;;18.10;85.30;;;;;;5032267;28;20075;-56
2023/06/30 02:10:40;;;;;;;3.92;3.50;;;18.10;85.20;;;;;;5033648;28;20071;-56
2023/06/30 02:13:06;;;;;;;4.03;3.63;;;18.10;85.20;;;;;;5032858;28;20489;-56
2023/06/30 02:15:31;;;;;;;4.40;3.70;;;18.10;85.30;;;;;;5033263;28;20045;-56
2023/06/30 02:17:57;;;;;;;5.63;3.97;;;18.10;85.10;;;;;;5033369;28;20056;-49
2023/06/30 02:20:22;;;;;;;4.18;3.58;;;18.10;85.00;;;;;;5033658;28;20045;-56
2023/06/30 02:22:48;;;;;;;4.45;3.38;;;18.10;85.00;;;;;;5033061;28;20493;-55
2023/06/30 02:25:14;;;;;;;4.45;3.38;;;18.00;85.20;;;;;;5033213;28;20029;-56
2023/06/30 02:27:39;;;;;;;4.05;3.42;;;18.00;85.20;;;;;;5033008;28;20026;-52
2023/06/30 02:30:07;;;;;;;5.03;3.38;;;18.00;85.10;;;;;;5033102;28;20500;-56
2023/06/30 02:32:37;;;;;;;3.70;3.22;;;18.10;85.10;;;;;;5033230;28;20026;-56
2023/06/30 02:35:05;;;;;;;4.47;3.60;;;18.10;85.00;;;;;;5032912;28;20034;-55
2023/06/30 02:37:30;;;;;;;4.10;3.38;;;18.10;85.10;;;;;;5032740;28;20025;-56
2023/06/30 02:39:56;;;;;;;3.47;3.13;;;18.10;84.90;;;;;;5032841;28;20033;-56
2023/06/30 02:42:22;;;;;;;3.97;3.10;;;18.10;84.80;;;;;;5032912;28;20037;-56
2023/06/30 02:44:48;;;;;;;3.97;3.30;;;18.20;84.80;;;;;;5032815;28;20029;-53
2023/06/30 02:47:13;;;;;;;3.60;3.30;;;18.20;84.60;;;;;;5032635;28;20018;-56
2023/06/30 02:49:39;;;;;;;4.00;3.60;;;18.20;84.40;;;;;;5032636;28;20029;-56
2023/06/30 02:52:05;;;;;;;3.85;3.45;;;18.30;84.40;;;;;;5032948;28;20021;-56
2023/06/30 02:54:31;;;;;;;4.15;3.58;;;18.30;84.40;;;;;;5032805;28;20087;-55
2023/06/30 02:56:57;;;;;;;3.88;3.50;;;18.40;84.30;;;;;;5032868;28;20033;-56
2023/06/30 02:59:22;;;;;;;3.97;3.30;;;18.40;84.00;;;;;;5032599;28;20028;-56
2023/06/30 03:01:48;;;;;;;4.45;3.75;;;18.30;83.80;;;;;;5032649;28;20029;-52
2023/06/30 03:04:14;;;;;;;4.20;3.60;;;18.40;83.60;;;;;;5032452;28;20051;-56
2023/06/30 03:06:39;;;;;;;4.60;3.38;;;18.30;83.70;;;;;;5031058;28;20090;-56
2023/06/30 03:09:05;;;;;;;4.03;3.45;;;18.40;83.80;;;;;;5032255;28;20057;-56
2023/06/30 03:11:31;;;;;;;5.53;3.58;;;18.40;83.80;;;;;;5032477;28;20505;-52
2023/06/30 03:13:57;;;;;;;3.83;3.42;;;18.50;83.60;;;;;;5032309;28;20147;-56
2023/06/30 03:16:23;;;;;;;3.95;3.40;;;18.50;83.30;;;;;;5032161;28;20033;-55
2023/06/30 03:18:48;;;;;;;4.00;3.60;;;18.50;83.20;;;;;;5032106;28;20025;-56
2023/06/30 03:21:14;;;;;;;4.75;3.88;;;18.60;83.20;;;;;;5031876;28;20037;-56
2023/06/30 03:23:41;;;;;;;4.47;3.50;;;18.60;83.10;;;;;;5030945;28;20060;-55
2023/06/30 03:26:07;;;;;;;4.43;3.65;;;18.70;83.10;;;;;;5032468;28;20025;-56
2023/06/30 03:28:32;;;;;;;4.10;3.65;;;18.70;83.10;;;;;;5032054;28;20448;-53
2023/06/30 03:30:58;;;;;;;3.88;3.45;;;18.80;83.00;;;;;;5031947;28;20025;-56
2023/06/30 03:33:24;;;;;;;4.00;3.60;;;18.90;82.60;;;;;;5031640;28;20040;-52
2023/06/30 03:35:50;;;;;;;4.55;3.83;;;19.00;82.80;;;;;;5032020;28;20040;-56
2023/06/30 03:38:16;;;;;;;4.10;3.70;;;19.10;82.20;;;;;;5031888;28;20033;-56
2023/06/30 03:40:42;;;;;;;3.78;3.38;;;19.20;82.00;;;;;;5031500;28;20481;-56
2023/06/30 03:43:07;;;;;;;4.10;3.70;;;19.30;81.70;;;;;;5031589;28;20113;-56
2023/06/30 03:45:33;;;;;;;4.15;3.75;;;19.40;81.30;;;;;;5031748;28;20079;-54
2023/06/30 03:47:59;;;;;;;4.18;3.75;;;19.40;81.60;;;;;;5031521;28;20057;-54
2023/06/30 03:50:24;;;;;;;3.70;3.33;;;19.80;82.80;;;;;;5031709;28;20075;-56
2023/06/30 03:52:50;;;;;;;4.38;3.83;;;20.60;82.60;;;;;;5031551;28;20026;-57
2023/06/30 03:55:15;;;;;;;3.70;3.30;;;21.50;80.80;;;;;;5031292;28;20029;-55
2023/06/30 03:57:41;;;;;;;3.40;3.00;;;22.30;78.70;;;;;;5031424;28;20428;-57
2023/06/30 04:00:11;;;;;;;3.28;2.97;;;23.00;77.60;;;;;;5031342;28;20033;-56
2023/06/30 04:02:37;;;;;;;3.28;2.80;;;23.80;76.30;;;;;;5031547;28;20036;-56
2023/06/30 04:05:02;;;;;;;3.20;2.80;;;24.70;74.90;;;;;;5031236;28;20041;-57
2023/06/30 04:07:28;;;;;;;3.15;2.85;;;25.50;73.00;;;;;;5031224;28;20029;-57
2023/06/30 04:09:53;;;;;;;3.80;3.40;;;26.50;71.60;;;;;;5031203;28;20029;-57
2023/06/30 04:12:19;;;;;;;3.50;3.05;;;27.20;69.30;;;;;;5031236;28;20033;-57
2023/06/30 04:14:45;;;;;;;3.45;3.15;;;27.80;67.70;;;;;;5031202;28;20030;-55
2023/06/30 04:17:10;;;;;;;3.20;2.90;;;28.30;66.20;;;;;;5031434;28;20033;-57
2023/06/30 04:19:36;;;;;;;3.28;2.90;;;28.80;65.00;;;;;;5031382;28;20029;-57
2023/06/30 04:22:02;;;;;;;3.17;2.88;;;29.20;63.90;;;;;;5030977;28;20029;-56
2023/06/30 04:24:27;;;;;;;3.78;3.20;;;29.50;63.10;;;;;;5031371;28;20029;-57
2023/06/30 04:26:53;;;;;;;3.97;2.90;;;29.90;61.80;;;;;;5031050;28;20029;-57
2023/06/30 04:29:19;;;;;;;3.10;2.80;;;29.80;60.30;;;;;;5031002;28;20033;-56
2023/06/30 04:31:44;;;;;;;3.50;3.17;;;29.40;59.90;;;;;;5031224;28;20048;-57
2023/06/30 04:34:10;;;;;;;3.35;3.05;;;29.10;60.90;;;;;;5031160;28;20503;-57
2023/06/30 04:36:35;;;;;;;4.45;2.97;;;29.30;61.30;;;;;;5034467;28;20025;-57
2023/06/30 04:39:01;;;;;;;2.90;2.70;;;29.70;60.80;;;;;;5035020;28;20068;-57
2023/06/30 04:41:27;;;;;;;3.17;2.88;;;30.20;60.30;;;;;;5035155;28;20052;-55
2023/06/30 04:43:52;;;;;;;3.40;3.10;;;30.70;59.30;;;;;;5035082;28;20033;-56
2023/06/30 04:46:18;;;;;;;3.10;2.80;;;31.20;58.70;;;;;;5034869;28;20021;-54
2023/06/30 04:48:43;;;;;;;3.00;2.70;;;31.60;57.90;;;;;;5034710;28;20022;-56
2023/06/30 04:51:09;;;;;;;5.10;3.08;;;31.90;56.90;;;;;;5034806;28;20033;-56
2023/06/30 04:53:35;;;;;;;3.47;3.17;;;32.10;56.40;;;;;;5034765;28;20029;-56
2023/06/30 04:56:01;;;;;;;4.05;2.90;;;32.50;56.10;;;;;;5034816;28;20038;-56
2023/06/30 04:58:27;;;;;;;3.60;3.30;;;32.70;55.00;;;;;;5034740;28;20132;-56
2023/06/30 05:00:55;;;;;;;3.50;3.20;;;32.90;54.60;;;;;;5034660;28;20500;-57
2023/06/30 05:03:20;;;;;;;3.13;2.83;;;33.00;54.30;;;;;;5034798;28;20021;-56
2023/06/30 05:05:46;;;;;;;2.92;2.72;;;33.20;54.10;;;;;;5034264;28;20433;-56
2023/06/30 05:08:12;;;;;;;3.40;3.10;;;33.40;54.00;;;;;;5034289;28;20069;-53
2023/06/30 05:10:37;;;;;;;3.30;3.00;;;33.70;53.60;;;;;;5032494;28;20183;-57
2023/06/30 05:13:03;;;;;;;3.40;3.10;;;33.90;52.80;;;;;;5032677;28;20388;-54
2023/06/30 05:15:29;;;;;;;3.65;3.15;;;33.90;52.50;;;;;;5033186;28;20264;-57
2023/06/30 05:17:54;;;;;;;3.53;2.90;;;34.00;52.40;;;;;;5033669;28;20044;-57
2023/06/30 05:20:20;;;;;;;6.32;3.33;;;34.10;52.20;;;;;;5033548;28;20037;-58
2023/06/30 05:22:45;;;;;;;3.20;2.90;;;34.20;51.00;;;;;;5034006;28;20061;-57
2023/06/30 05:25:11;;;;;;;4.32;3.38;;;34.10;50.40;;;;;;5034239;28;20026;-57
2023/06/30 05:27:37;;;;;;;5.38;3.30;;;33.70;50.30;;;;;;5034164;28;20109;-57
2023/06/30 05:30:03;;;;;;;4.07;3.10;;;33.10;50.40;;;;;;5034117;28;20037;-57
2023/06/30 05:32:28;;;;;;;3.35;3.05;;;32.50;51.10;;;;;;5034319;28;20372;-57
2023/06/30 05:34:54;;;;;;;5.18;3.67;;;31.70;51.70;;;;;;5033135;28;20030;-56
2023/06/30 05:37:19;;;;;;;4.25;3.70;;;31.00;52.40;;;;;;5028479;28;20033;-57
2023/06/30 05:39:45;;;;;;;4.07;3.53;;;30.40;53.10;;;;;;5028433;28;20048;-57
2023/06/30 05:42:11;;;;;;;4.15;3.75;;;29.70;53.60;;;;;;5033992;28;20113;-55
2023/06/30 05:44:36;;;;;;;4.28;3.88;;;29.00;54.30;;;;;;5036746;28;20472;-57
2023/06/30 05:47:02;;;;;;;4.72;3.95;;;28.40;55.10;;;;;;5037384;28;20028;-57
2023/06/30 05:49:28;;;;;;;4.28;3.47;;;27.90;55.70;;;;;;5035403;28;20113;-55
2023/06/30 05:51:54;;;;;;;4.22;3.78;;;27.40;56.30;;;;;;5050409;28;20029;-53
2023/06/30 05:54:19;;;;;;;4.43;3.97;;;27.00;56.90;;;;;;5037633;28;20072;-57
2023/06/30 05:56:45;;;;;;;4.18;3.67;;;26.70;57.40;;;;;;5034824;28;20052;-56
2023/06/30 05:59:11;;;;;;;4.75;4.22;;;26.40;58.10;;;;;;5032187;28;20757;-57
2023/06/30 06:01:40;;;;;;;6.22;3.95;;;26.10;58.50;;;;;;5035733;28;20495;-56
2023/06/30 06:04:09;;;;;;;5.25;4.15;;;25.90;58.80;;;;;;5030912;28;20040;-51
2023/06/30 06:06:35;;;;;;;4.82;4.32;;;25.80;59.30;;;;;;5034431;28;20029;-57
2023/06/30 06:09:01;;;;;;;4.65;3.92;;;25.60;59.60;;;;;;5041246;28;20071;-57
2023/06/30 06:11:26;;;;;;;5.05;4.38;;;25.50;59.90;;;;;;5038315;28;20034;-56
2023/06/30 06:13:52;;;;;;;5.63;4.18;;;25.40;60.20;;;;;;5026097;28;20044;-56
2023/06/30 06:16:18;;;;;;;4.90;4.38;;;25.40;60.40;;;;;;5032925;28;20036;-54
2023/06/30 06:18:44;;;;;;;4.50;3.97;;;25.30;60.60;;;;;;5032839;28;20444;-57
2023/06/30 06:21:09;;;;;;;4.85;4.13;;;25.20;60.90;;;;;;5034962;28;20033;-57
2023/06/30 06:23:35;;;;;;;5.15;4.22;;;25.20;60.90;;;;;;5030800;28;20033;-55
2023/06/30 06:26:03;;;;;;;5.30;4.30;;;25.20;61.40;;;;;;5034504;28;20021;-57
2023/06/30 06:28:29;;;;;;;4.97;4.30;;;25.20;61.60;;;;;;5031979;28;20112;-56
2023/06/30 06:30:55;;;;;;;4.85;4.30;;;25.30;61.50;;;;;;5026596;28;20128;-56
2023/06/30 06:33:20;;;;;;;5.53;4.20;;;25.30;61.30;;;;;;5031154;28;20124;-56
2023/06/30 06:35:51;;;;;;;4.80;4.30;;;25.20;61.60;;;;;;5031024;28;20512;-56
2023/06/30 06:38:17;;;;;;;4.85;4.38;;;25.20;61.40;;;;;;5030232;28;20064;-57
2023/06/30 06:40:46;;;;;;;5.03;4.40;;;25.10;61.50;;;;;;5030672;28;20124;-57
2023/06/30 06:43:12;;;;;;;5.32;3.85;;;25.00;61.50;;;;;;5034892;28;20017;-57
2023/06/30 06:45:38;;;;;;;5.18;4.68;;;25.00;61.90;;;;;;5036809;28;20029;-56
2023/06/30 06:48:25;;;;;;;4.47;4.07;;;24.90;62.00;;;;;;5029381;28;20512;-55
2023/06/30 06:50:59;;;;;;;4.45;4.05;;;24.80;62.40;;;;;;5025246;28;20036;-57
2023/06/30 06:53:33;;;;;;;5.45;4.63;;;24.80;62.30;;;;;;5026730;28;20409;-54
2023/06/30 06:55:59;;;;;;;4.82;4.03;;;24.80;62.50;;;;;;5027145;28;20033;-56
2023/06/30 06:58:28;;;;;;;5.43;4.13;;;24.80;62.60;;;;;;5027291;28;20034;-57
2023/06/30 07:00:54;;;;;;;4.40;4.00;;;24.80;62.60;;;;;;5023140;28;20029;-50
2023/06/30 07:03:20;;;;;;;6.65;4.85;;;24.90;62.60;;;;;;5021183;28;20030;-56
2023/06/30 07:05:47;;;;;;;5.65;4.30;;;24.90;62.40;;;;;;5031297;28;20162;-56
2023/06/30 07:08:14;;;;;;;5.03;4.53;;;24.90;62.30;;;;;;5019509;28;20026;-56
2023/06/30 07:10:41;;;;;;;5.30;4.30;;;24.80;62.30;;;;;;5019185;28;20021;-55
2023/06/30 07:13:07;;;;;;;5.05;4.40;;;24.70;62.50;;;;;;5023646;28;21234;-57
2023/06/30 07:15:34;;;;;;;4.72;4.25;;;24.60;63.00;;;;;;5027510;28;20045;-54
2023/06/30 07:18:00;;;;;;;4.93;4.43;;;24.70;63.30;;;;;;5026189;28;20063;-57
2023/06/30 07:20:26;;;;;;;4.75;4.25;;;24.70;63.30;;;;;;5026367;28;20451;-57
2023/06/30 07:22:56;;;;;;;5.50;4.45;;;24.70;63.60;;;;;;5030958;28;20550;-56
2023/06/30 07:25:22;;;;;;;5.37;4.00;;;24.70;63.70;;;;;;5020151;28;20026;-56
2023/06/30 07:27:52;;;;;;;4.90;4.40;;;24.80;63.80;;;;;;5015114;28;20032;-55
2023/06/30 07:30:18;;;;;;;4.85;4.30;;;24.80;63.70;;;;;;5030686;28;20397;-57
2023/06/30 07:32:44;;;;;;;4.90;4.40;;;24.90;63.70;;;;;;5021662;28;20032;-56
2023/06/30 07:35:10;;;;;;;6.72;4.55;;;24.80;63.20;;;;;;5011401;28;20037;-54
2023/06/30 07:37:35;;;;;;;5.03;4.07;;;24.90;63.20;;;;;;5021780;28;20029;-54
2023/06/30 07:40:01;;;;;;;5.07;4.40;;;24.90;63.30;;;;;;5021674;28;20038;-52
2023/06/30 07:42:27;;;;;;;5.00;4.00;;;24.90;63.20;;;;;;5025161;28;20464;-57
2023/06/30 07:44:52;;;;;;;5.40;4.30;;;24.90;63.30;;;;;;5025415;28;20507;-57
2023/06/30 07:47:18;;;;;;;4.68;4.18;;;24.90;63.10;;;;;;5030645;28;20033;-53
2023/06/30 07:49:44;;;;;;;4.55;4.07;;;24.90;62.90;;;;;;5026654;28;20037;-57
2023/06/30 07:52:10;;;;;;;6.25;4.47;;;24.90;62.90;;;;;;5027257;28;20052;-53
2023/06/30 07:54:35;;;;;;;4.70;3.78;;;25.00;62.70;;;;;;5022163;28;20029;-54
2023/06/30 07:57:01;;;;;;;5.43;3.90;;;24.90;62.70;;;;;;5027791;28;20037;-53
2023/06/30 07:59:27;;;;;;;5.63;4.57;;;24.90;62.90;;;;;;5022395;28;20091;-53
2023/06/30 08:01:52;;;;;;;4.72;4.22;;;25.00;63.10;;;;;;5023854;28;20098;-57
2023/06/30 08:04:18;;;;;;;4.30;3.90;;;24.90;63.00;;;;;;5020732;28;20037;-53
2023/06/30 08:06:44;;;;;;;4.95;4.40;;;25.00;62.90;;;;;;5024093;28;20465;-57
2023/06/30 08:09:10;;;;;;;5.32;4.75;;;25.00;62.90;;;;;;5015314;28;20029;-54
2023/06/30 08:11:36;;;;;;;4.90;4.22;;;25.00;63.00;;;;;;5007172;28;20474;-54
2023/06/30 08:14:04;;;;;;;4.72;4.20;;;25.00;62.90;;;;;;5014235;28;20038;-54
2023/06/30 08:16:30;;;;;;;4.70;4.10;;;25.00;63.10;;;;;;5015990;28;20043;-55
2023/06/30 08:18:55;;;;;;;5.47;4.43;;;25.10;63.00;;;;;;5016802;28;20021;-55
2023/06/30 08:21:21;;;;;;;4.63;4.10;;;25.00;62.90;;;;;;5013559;28;20313;-56
2023/06/30 08:23:47;;;;;;;7.07;4.10;;;25.10;63.10;;;;;;5013752;28;20073;-51
2023/06/30 08:26:12;;;;;;;5.10;4.40;;;25.00;62.80;;;;;;5022252;28;20047;-55
2023/06/30 08:28:38;;;;;;;6.47;4.68;;;25.10;62.60;;;;;;5018783;28;20028;-57
2023/06/30 08:31:04;;;;;;;6.22;4.78;;;25.00;62.50;;;;;;5016586;28;20100;-56
2023/06/30 08:33:30;;;;;;;4.80;4.10;;;25.00;62.40;;;;;;5018090;28;20077;-56
2023/06/30 08:35:56;;;;;;;5.40;4.60;;;25.00;62.40;;;;;;5020752;28;20112;-58
2023/06/30 08:38:22;;;;;;;5.72;4.93;;;25.00;62.50;;;;;;5020428;28;20025;-53
2023/06/30 08:40:48;;;;;;;4.95;4.43;;;25.00;62.30;;;;;;5018508;28;20037;-57
2023/06/30 08:43:15;;;;;;;5.78;4.93;;;25.00;62.30;;;;;;5028313;28;20159;-53
2023/06/30 08:45:43;;;;;;;5.50;4.85;;;25.00;62.40;;;;;;5019101;28;20030;-57
2023/06/30 08:48:10;;;;;;;5.88;4.68;;;25.00;62.50;;;;;;5021615;28;20099;-58
2023/06/30 08:50:37;;;;;;;4.97;4.47;;;25.00;62.30;;;;;;5018413;28;20022;-56
2023/06/30 08:53:04;;;;;;;5.10;4.60;;;24.90;62.00;;;;;;5015804;28;20021;-51
2023/06/30 08:55:30;;;;;;;4.93;4.30;;;24.90;62.10;;;;;;5023992;28;20665;-52
2023/06/30 08:57:57;;;;;;;5.43;4.93;;;24.90;62.10;;;;;;5018666;28;20113;-55
2023/06/30 09:00:23;;;;;;;5.18;4.40;;;24.90;62.40;;;;;;5016749;28;20071;-55
2023/06/30 09:02:50;;;;;;;5.15;4.43;;;24.90;62.20;;;;;;5018730;28;20030;-54
2023/06/30 09:05:16;;;;;;;5.35;4.53;;;24.90;62.30;;;;;;5022775;28;20547;-55
2023/06/30 09:08:15;;;;;;;5.53;4.65;;;24.90;62.20;;;;;;5021332;28;20017;-55
2023/06/30 09:10:42;;;;;;;5.80;4.45;;;24.90;62.00;;;;;;5010781;28;20053;-56
2023/06/30 09:13:09;;;;;;;5.00;4.50;;;24.90;62.20;;;;;;5021537;28;20528;-55
2023/06/30 09:15:35;;;;;;;5.90;4.40;;;24.90;62.10;;;;;;5014766;28;20136;-54
2023/06/30 09:18:01;;;;;;;5.20;4.53;;;24.80;61.90;;;;;;5023775;28;20563;-56
2023/06/30 09:20:27;;;;;;;4.65;4.15;;;24.80;61.90;;;;;;5021507;28;20116;-56
2023/06/30 09:22:52;;;;;;;5.72;3.90;;;24.80;61.70;;;;;;5028475;28;20049;-59
2023/06/30 09:25:27;;;;;;;4.45;4.05;;;24.80;61.90;;;;;;5029093;28;20044;-58
2023/06/30 09:27:56;;;;;;;5.53;4.60;;;24.80;62.10;;;;;;5028914;28;20025;-54
2023/06/30 09:30:32;;;;;;;6.13;4.38;;;24.80;62.10;;;;;;5033168;28;20026;-56
2023/06/30 09:32:57;;;;;;;4.47;4.05;;;24.80;61.70;;;;;;5026979;28;20087;-56
2023/06/30 09:35:23;;;;;;;4.70;4.13;;;24.80;61.80;;;;;;5027180;28;20033;-55
2023/06/30 09:37:49;;;;;;;6.00;4.25;;;24.80;61.80;;;;;;5017771;28;20056;-57
2023/06/30 09:40:15;;;;;;;5.43;4.20;;;24.80;61.80;;;;;;5025477;28;20029;-60
2023/06/30 09:42:44;;;;;;;5.25;4.47;;;24.80;61.70;;;;;;5024886;28;20516;-60
2023/06/30 09:45:13;;;;;;;4.88;4.15;;;24.80;61.60;;;;;;5028210;28;20033;-57
2023/06/30 09:47:39;;;;;;;5.35;4.75;;;24.80;61.50;;;;;;5025184;28;20919;-54
2023/06/30 09:50:06;;;;;;;5.40;4.00;;;24.80;61.70;;;;;;5022113;28;20060;-57
2023/06/30 09:52:33;;;;;;;4.78;4.10;;;24.80;61.80;;;;;;5020590;28;20135;-57
2023/06/30 09:55:08;;;;;;;5.00;4.45;;;24.90;61.40;;;;;;5019365;28;20060;-58
2023/06/30 09:57:37;;;;;;;4.68;4.13;;;24.80;61.50;;;;;;5021412;28;20303;-57
2023/06/30 10:00:04;;;;;;;5.63;4.78;;;24.80;61.40;;;;;;5020791;28;20022;-58
2023/06/30 10:02:31;;;;;;;5.65;4.05;;;24.90;61.60;;;;;;5021166;28;20151;-56
2023/06/30 10:04:56;;;;;;;5.15;4.57;;;24.80;61.50;;;;;;5021117;28;20060;-57
2023/06/30 10:07:23;;;;;;;4.82;3.67;;;24.90;61.80;;;;;;5028451;28;20029;-56
2023/06/30 10:09:50;;;;;;;4.90;4.35;;;24.90;62.00;;;;;;5021740;28;20037;-58
2023/06/30 10:12:18;;;;;;;5.32;4.53;;;24.90;61.70;;;;;;5018609;28;20034;-57
2023/06/30 10:14:47;;;;;;;5.90;4.63;;;24.90;62.20;;;;;;5032023;28;20032;-55
2023/06/30 10:17:13;;;;;;;5.07;4.32;;;24.90;61.60;;;;;;5022062;28;20435;-55
2023/06/30 10:19:39;;;;;;;5.80;4.43;;;25.00;61.90;;;;;;5018769;28;20532;-57
2023/06/30 10:22:05;;;;;;;5.32;4.82;;;25.00;61.60;;;;;;5028116;28;20430;-51
2023/06/30 10:24:42;;;;;;;6.10;4.53;;;25.00;60.90;;;;;;5022462;28;20033;-58
2023/06/30 10:27:12;;;;;;;5.07;4.50;;;25.00;60.50;;;;;;5025334;28;20061;-57
2023/06/30 10:29:38;;;;;;;4.97;4.35;;;25.00;60.20;;;;;;5027034;28;20017;-57
2023/06/30 10:32:04;;;;;;;4.80;4.28;;;25.10;60.30;;;;;;5021521;28;20057;-56
2023/06/30 10:34:30;;;;;;;4.70;4.22;;;25.10;60.60;;;;;;5025193;28;20025;-58
2023/06/30 10:36:58;;;;;;;4.68;4.07;;;25.20;60.90;;;;;;5024830;28;20029;-58
2023/06/30 10:39:24;;;;;;;5.78;4.40;;;25.20;60.90;;;;;;5019199;28;20034;-57
2023/06/30 10:41:50;;;;;;;5.07;4.57;;;25.20;60.50;;;;;;5024614;28;20037;-57
2023/06/30 10:44:20;;;;;;;4.93;4.40;;;25.20;60.00;;;;;;5023890;28;20025;-58
2023/06/30 10:46:52;;;;;;;5.20;4.70;;;25.20;59.70;;;;;;5022597;28;20373;-57
2023/06/30 10:49:29;;;;;;;5.20;4.65;;;25.10;59.20;;;;;;5022753;28;20511;-55
2023/06/30 10:51:56;;;;;;;4.97;4.47;;;25.10;59.40;;;;;;5023911;28;20108;-56
2023/06/30 10:54:27;;;;;;;5.03;4.53;;;25.10;59.50;;;;;;5020166;28;20100;-56
2023/06/30 10:57:09;;;;;;;4.78;4.32;;;25.00;59.70;;;;;;5019154;28;20041;-55
2023/06/30 10:59:37;;;;;;;5.40;4.20;;;25.00;59.60;;;;;;5024431;28;20037;-57
2023/06/30 11:02:22;;;;;;;5.68;4.22;;;24.90;59.70;;;;;;5023480;28;20489;-58
2023/06/30 11:04:50;;;;;;;5.18;4.25;;;24.90;60.20;;;;;;5025076;28;20033;-55
2023/06/30 11:07:23;;;;;;;4.85;4.35;;;24.90;60.70;;;;;;5024334;28;20489;-54
2023/06/30 11:09:49;;;;;;;6.00;4.10;;;24.90;60.80;;;;;;5032550;28;20515;-57
2023/06/30 11:12:24;;;;;;;4.28;3.88;;;25.00;61.20;;;;;;5033931;28;20025;-57
2023/06/30 11:14:52;;;;;;;4.35;3.95;;;25.00;61.30;;;;;;5030472;28;20495;-56
2023/06/30 11:17:18;;;;;;;5.20;4.25;;;25.00;60.90;;;;;;5024011;28;20065;-57
2023/06/30 11:20:23;;;;;;;4.53;4.13;;;25.00;61.00;;;;;;5020929;28;20517;-54
2023/06/30 11:22:55;;;;;;;4.60;4.00;;;25.00;61.10;;;;;;4998159;28;20120;-55
2023/06/30 11:25:21;;;;;;;4.80;4.30;;;25.10;61.40;;;;;;5023870;28;20103;-54
2023/06/30 11:27:47;;;;;;;4.68;4.13;;;25.10;61.50;;;;;;5029614;28;20075;-57
2023/06/30 11:30:24;;;;;;;4.72;4.22;;;25.10;61.60;;;;;;5023634;28;20112;-54
2023/06/30 11:32:56;;;;;;;4.65;4.10;;;25.10;61.70;;;;;;5022125;28;20485;-56
2023/06/30 11:35:22;;;;;;;4.88;4.38;;;25.00;61.80;;;;;;5017151;28;20231;-57
2023/06/30 11:37:49;;;;;;;4.57;4.18;;;25.00;61.80;;;;;;5015725;28;20029;-57
2023/06/30 11:40:15;;;;;;;4.72;4.22;;;25.00;61.80;;;;;;5016928;28;20026;-53
2023/06/30 11:42:41;;;;;;;6.03;4.32;;;25.10;61.90;;;;;;5027146;28;20029;-55
2023/06/30 11:45:08;;;;;;;5.25;4.40;;;25.10;61.50;;;;;;5015257;28;20025;-55
2023/06/30 11:47:34;;;;;;;4.82;4.22;;;25.10;60.90;;;;;;5017211;28;20025;-57
2023/06/30 11:50:09;;;;;;;4.93;4.43;;;25.20;60.60;;;;;;5021879;28;20480;-54
2023/06/30 11:52:38;;;;;;;5.72;4.43;;;25.20;60.70;;;;;;5027470;28;20035;-53
2023/06/30 11:55:05;;;;;;;5.43;4.50;;;25.20;60.50;;;;;;5018550;28;20049;-56
2023/06/30 11:57:36;;;;;;;4.80;4.30;;;25.30;60.40;;;;;;5021260;28;20169;-53
2023/06/30 12:00:19;;;;;;;5.00;4.25;;;25.30;60.10;;;;;;5020003;28;20021;-53
2023/06/30 12:02:47;;;;;;;4.88;4.45;;;25.20;59.80;;;;;;5024493;28;20041;-57
2023/06/30 12:05:26;;;;;;;6.07;4.40;;;25.20;59.70;;;;;;5021067;28;20053;-56
2023/06/30 12:07:55;;;;;;;4.65;4.15;;;25.20;59.50;;;;;;5014622;28;20033;-54
2023/06/30 12:10:22;;;;;;;4.72;4.22;;;25.20;59.40;;;;;;5026435;28;20029;-56
2023/06/30 12:12:58;;;;;;;4.68;4.18;;;25.10;59.60;;;;;;5025841;28;20037;-55
2023/06/30 12:15:24;;;;;;;4.90;4.40;;;25.10;59.90;;;;;;5023271;28;20030;-54
2023/06/30 12:17:54;;;;;;;4.80;4.30;;;25.10;60.70;;;;;;5024452;28;20025;-54
2023/06/30 12:20:31;;;;;;;5.13;4.40;;;25.10;60.20;;;;;;5027570;28;20033;-56
2023/06/30 12:22:57;;;;;;;4.35;3.90;;;25.10;60.70;;;;;;5030100;28;20033;-57
2023/06/30 12:25:26;;;;;;;5.22;4.55;;;25.10;60.90;;;;;;5022521;28;20041;-53
2023/06/30 12:27:54;;;;;;;4.15;3.75;;;25.10;61.00;;;;;;5021718;28;20036;-55
2023/06/30 12:30:21;;;;;;;4.53;4.10;;;25.10;61.30;;;;;;5022047;28;20029;-55
2023/06/30 12:32:46;;;;;;;5.30;4.40;;;25.10;61.30;;;;;;5019608;28;20087;-56
2023/06/30 12:35:12;;;;;;;5.82;4.45;;;25.00;61.30;;;;;;5019244;28;20112;-56
2023/06/30 12:37:39;;;;;;;4.63;4.20;;;25.00;61.20;;;;;;5021577;28;20048;-55
2023/06/30 12:40:08;;;;;;;5.05;4.60;;;25.00;60.80;;;;;;5012453;28;20065;-55
2023/06/30 12:42:34;;;;;;;4.78;4.38;;;25.00;60.50;;;;;;5017758;28;20116;-56
2023/06/30 12:44:59;;;;;;;5.05;4.03;;;25.00;60.70;;;;;;5024332;28;21805;-55
2023/06/30 12:47:25;;;;;;;5.93;4.30;;;25.00;60.40;;;;;;5029710;28;20025;-57